CheckWX is a tool to help pilots better visualize weather data.  It is not intended as a substitute for an official pre-flight weather briefing.

09:36:53 UTC

1A5 METAR
Macon County Airport
Franklin, North Carolina, USA
Current

42 mins ago

K1A5 070855Z AUTO 00000KT 10SM CLR M01/M01 A3026 RMK AO2 T10061012
Observed
Dec-7 @ 08:55 UTC
Visibility
10 SM
Flight Rules
VFR
Cloud Levels
  • Clear skies
Temperature
-1°C / 30°F
Dewpoint
-1°C / 30°F
Humidity
100%
Altimeter
30.26" Hg
Pressure
1024.72 hPa
Previous

1 hour ago

K1A5 070835Z AUTO 00000KT 10SM CLR 00/M01 A3026 RMK AO2 T10031008
Observed
Dec-7 @ 08:35 UTC
Visibility
10 SM
Flight Rules
VFR
Cloud Levels
  • Clear skies
Temperature
-0°C / 32°F
Dewpoint
-1°C / 30°F
Humidity
93%
Altimeter
30.26" Hg
Pressure
1024.72 hPa
Previous

1 hour ago

K1A5 070815Z AUTO 00000KT 10SM CLR M01/M01 A3025 RMK AO2 T10061012
Observed
Dec-7 @ 08:15 UTC
Visibility
10 SM
Flight Rules
VFR
Cloud Levels
  • Clear skies
Temperature
-1°C / 30°F
Dewpoint
-1°C / 30°F
Humidity
100%
Altimeter
30.25" Hg
Pressure
1024.42 hPa